createdAt,value
2019-06-26T00:01:49.707Z,9.55
2019-06-26T00:04:18.232Z,9.13
2019-06-26T00:06:46.961Z,9.40
2019-06-26T00:09:15.645Z,8.88
2019-06-26T00:11:44.107Z,9.28
2019-06-26T00:14:12.594Z,9.30
2019-06-26T00:16:41.027Z,8.93
2019-06-26T00:19:09.766Z,8.70
2019-06-26T00:21:38.202Z,8.75
2019-06-26T00:24:06.692Z,9.13
2019-06-26T00:26:35.417Z,9.63
2019-06-26T00:29:04.100Z,9.03
2019-06-26T00:31:32.568Z,9.25
2019-06-26T00:34:01.366Z,9.13
2019-06-26T00:36:30.059Z,9.80
2019-06-26T00:38:58.744Z,10.35
2019-06-26T00:41:27.474Z,10.55
2019-06-26T00:43:56.217Z,11.28
2019-06-26T00:46:24.637Z,11.27
2019-06-26T00:48:53.310Z,12.43
2019-06-26T00:51:22.068Z,11.77
2019-06-26T00:53:50.498Z,12.58
2019-06-26T00:56:19.219Z,13.13
2019-06-26T00:58:47.906Z,13.03
2019-06-26T01:01:16.910Z,14.00
2019-06-26T01:03:45.580Z,15.25
2019-06-26T01:06:25.019Z,15.98
2019-06-26T01:08:53.697Z,14.85
2019-06-26T01:11:22.140Z,15.63
2019-06-26T01:13:58.028Z,15.15
2019-06-26T01:16:20.965Z,17.17
2019-06-26T01:18:49.391Z,14.93
2019-06-26T01:21:18.160Z,16.02
2019-06-26T01:23:46.576Z,16.80
2019-06-26T01:26:15.322Z,16.15
2019-06-26T01:28:43.741Z,17.98
2019-06-26T01:31:12.165Z,16.20
2019-06-26T01:33:40.608Z,17.57
2019-06-26T01:36:09.274Z,17.10
2019-06-26T01:38:37.723Z,17.05
2019-06-26T01:41:06.156Z,16.73
2019-06-26T01:43:34.643Z,16.77
2019-06-26T01:46:04.100Z,16.10
2019-06-26T01:48:32.519Z,17.32
2019-06-26T01:51:01.190Z,17.17
2019-06-26T01:53:29.630Z,16.87
2019-06-26T01:55:58.058Z,17.62
2019-06-26T01:58:27.121Z,18.90
2019-06-26T02:00:55.795Z,18.67
2019-06-26T02:03:24.595Z,19.57
2019-06-26T02:05:53.074Z,21.23
2019-06-26T02:08:21.828Z,22.70
2019-06-26T02:10:50.512Z,21.65
2019-06-26T02:13:19.210Z,23.07
2019-06-26T02:15:47.893Z,23.02
2019-06-26T02:18:27.077Z,24.12
2019-06-26T02:20:55.599Z,24.50
2019-06-26T02:23:24.118Z,24.47
2019-06-26T02:25:52.589Z,24.40
2019-06-26T02:28:21.042Z,24.90
2019-06-26T02:30:49.925Z,23.98
2019-06-26T02:33:18.370Z,24.67
2019-06-26T02:35:47.194Z,24.70
2019-06-26T02:38:16.021Z,25.65
2019-06-26T02:40:44.691Z,24.95
2019-06-26T02:43:13.204Z,25.55
2019-06-26T02:45:41.906Z,26.00
2019-06-26T02:48:10.613Z,26.40
2019-06-26T02:50:39.283Z,25.97
2019-06-26T02:53:07.795Z,25.10
2019-06-26T02:55:36.222Z,28.90
2019-06-26T02:58:04.714Z,25.43
2019-06-26T03:00:33.397Z,24.83
2019-06-26T03:03:02.239Z,26.17
2019-06-26T03:05:30.902Z,28.40
2019-06-26T03:07:59.322Z,26.77
2019-06-26T03:10:27.993Z,26.83
2019-06-26T05:04:56.852Z,26.82
2019-06-26T05:07:25.650Z,26.37
2019-06-26T05:09:54.058Z,26.70
2019-06-26T05:12:22.488Z,25.32
2019-06-26T05:14:50.911Z,25.95
2019-06-26T05:17:19.343Z,27.80
2019-06-26T05:19:48.129Z,27.40
2019-06-26T05:22:16.569Z,24.47
2019-06-26T05:24:46.501Z,26.40
2019-06-26T05:27:16.240Z,26.37
2019-06-26T05:29:44.702Z,26.70
2019-06-26T05:32:13.208Z,29.00
2019-06-26T05:34:41.632Z,26.87
2019-06-26T05:37:10.060Z,26.93
2019-06-26T05:39:38.497Z,27.75
2019-06-26T05:42:07.032Z,30.67
2019-06-26T05:44:35.626Z,30.48
2019-06-26T05:47:06.967Z,30.88
2019-06-26T05:49:34.193Z,31.68
2019-06-26T05:52:02.668Z,28.23
2019-06-26T05:54:31.121Z,29.27
2019-06-26T05:56:59.600Z,29.00
2019-06-26T05:59:28.055Z,28.92
2019-06-26T06:01:56.493Z,30.12
2019-06-26T06:04:24.912Z,28.98
2019-06-26T06:06:53.341Z,30.68
2019-06-26T06:09:21.830Z,31.17
2019-06-26T06:11:50.265Z,31.15
2019-06-26T06:14:19.045Z,31.97
2019-06-26T06:16:48.126Z,29.43
2019-06-26T06:19:16.673Z,31.12
2019-06-26T06:21:45.738Z,31.12
2019-06-26T06:24:14.153Z,29.35
2019-06-26T06:26:42.601Z,29.37
2019-06-26T06:29:11.304Z,29.67
2019-06-26T06:31:39.756Z,28.47
2019-06-26T06:34:08.652Z,28.70
2019-06-26T06:36:37.085Z,27.75
2019-06-26T06:39:06.340Z,28.70
2019-06-26T06:41:34.756Z,26.47
2019-06-26T06:44:03.257Z,25.65
2019-06-26T06:46:32.092Z,27.42
2019-06-26T06:49:00.518Z,23.32
2019-06-26T06:51:28.959Z,25.45
2019-06-26T06:53:57.398Z,24.47
2019-06-26T06:56:25.827Z,21.12
2019-06-26T06:58:54.265Z,21.93
2019-06-26T07:01:22.775Z,20.97
2019-06-26T07:03:51.218Z,22.83
2019-06-26T07:06:19.657Z,24.03
2019-06-26T07:08:48.085Z,21.68
2019-06-26T07:11:16.506Z,22.77
2019-06-26T07:13:44.957Z,23.00
2019-06-26T07:16:13.530Z,23.73
2019-06-26T07:18:41.993Z,22.70
2019-06-26T07:21:10.479Z,19.92
2019-06-26T07:23:38.897Z,20.57
2019-06-26T07:26:07.313Z,17.25
2019-06-26T07:28:35.839Z,17.20
2019-06-26T07:31:04.259Z,19.57
2019-06-26T07:33:32.690Z,20.48
2019-06-26T07:36:01.125Z,21.20
2019-06-26T07:38:29.678Z,21.90
2019-06-26T07:40:58.123Z,19.98
2019-06-26T07:43:26.540Z,22.05
2019-06-26T07:45:54.981Z,21.48
2019-06-26T07:48:23.417Z,19.67
2019-06-26T07:50:52.110Z,17.98
2019-06-26T07:53:20.556Z,17.10
2019-06-26T07:55:48.977Z,15.97
2019-06-26T07:58:17.439Z,16.30
2019-06-26T08:00:45.990Z,16.82
2019-06-26T08:03:14.519Z,19.37
2019-06-26T08:05:43.397Z,19.30
2019-06-26T08:08:14.464Z,18.37
2019-06-26T08:10:42.588Z,18.57
2019-06-26T08:13:11.004Z,19.62
2019-06-26T08:15:39.437Z,18.02
2019-06-26T08:18:07.885Z,17.45
2019-06-26T08:20:50.266Z,18.63
2019-06-26T08:23:06.449Z,16.33
2019-06-26T08:25:34.907Z,14.00
2019-06-26T08:28:03.376Z,15.08
2019-06-26T08:30:31.809Z,14.85
2019-06-26T08:33:00.472Z,14.75
2019-06-26T08:35:28.925Z,13.93
2019-06-26T08:38:09.454Z,13.78
2019-06-26T08:40:28.649Z,14.30
2019-06-26T08:42:57.087Z,13.72
2019-06-26T08:45:25.835Z,13.58
2019-06-26T08:47:55.134Z,13.72
2019-06-26T08:50:24.485Z,11.80
2019-06-26T08:52:52.999Z,12.30
2019-06-26T08:55:21.434Z,13.65
2019-06-26T08:57:50.212Z,13.25
2019-06-26T09:00:19.455Z,13.38
2019-06-26T09:02:48.118Z,11.10
2019-06-26T09:05:16.697Z,13.48
2019-06-26T09:07:45.138Z,13.62
2019-06-26T09:10:14.329Z,14.43
2019-06-26T09:12:42.761Z,13.05
2019-06-26T09:15:11.658Z,12.43
2019-06-26T09:17:40.087Z,14.10
2019-06-26T09:20:09.154Z,14.38
2019-06-26T09:22:37.655Z,14.73
2019-06-26T09:25:20.828Z,13.58
2019-06-26T09:27:38.096Z,14.40
2019-06-26T09:30:07.592Z,14.75
2019-06-26T09:32:36.155Z,12.98
2019-06-26T09:35:05.981Z,13.85
2019-06-26T09:37:34.415Z,12.40
2019-06-26T09:40:02.960Z,15.00
2019-06-26T09:42:31.439Z,15.15
2019-06-26T09:44:59.924Z,12.85
2019-06-26T09:47:30.964Z,12.20
2019-06-26T09:49:58.592Z,12.57
2019-06-26T09:52:27.130Z,13.10
2019-06-26T09:54:55.640Z,13.08
2019-06-26T09:57:24.053Z,13.80
2019-06-26T09:59:52.490Z,13.00
2019-06-26T10:02:20.922Z,12.23
2019-06-26T10:04:49.367Z,11.35
2019-06-26T10:07:18.022Z,12.80
2019-06-26T10:09:46.693Z,13.95
2019-06-26T10:12:15.404Z,12.93
2019-06-26T10:14:47.872Z,13.35
2019-06-26T10:17:14.853Z,13.97
2019-06-26T10:19:43.533Z,13.87
2019-06-26T10:22:11.979Z,13.90
2019-06-26T10:24:40.725Z,14.13
2019-06-26T10:27:09.162Z,13.60
2019-06-26T10:29:37.578Z,13.38
2019-06-26T10:32:06.062Z,13.68
2019-06-26T10:34:34.543Z,13.53
2019-06-26T10:37:03.016Z,13.80
2019-06-26T10:39:31.500Z,15.05
2019-06-26T10:41:59.936Z,14.53
2019-06-26T10:44:28.357Z,14.58
2019-06-26T10:46:56.909Z,15.30
2019-06-26T10:49:27.441Z,15.70
2019-06-26T10:51:55.491Z,17.03
2019-06-26T10:54:23.956Z,17.40
2019-06-26T10:56:52.400Z,16.90
2019-06-26T10:59:20.827Z,17.52
2019-06-26T11:01:49.253Z,19.35
2019-06-26T11:04:17.684Z,17.90
2019-06-26T11:06:46.174Z,17.25
2019-06-26T11:09:14.917Z,20.08
2019-06-26T11:11:43.693Z,17.75
2019-06-26T11:14:12.142Z,18.60
2019-06-26T11:16:40.568Z,17.20
2019-06-26T11:19:09.044Z,15.03
2019-06-26T11:21:37.911Z,17.75
2019-06-26T11:24:06.586Z,18.50
2019-06-26T11:26:35.392Z,19.73
2019-06-26T11:29:04.063Z,19.10
2019-06-26T11:31:32.764Z,18.35
2019-06-26T11:34:01.403Z,18.98
2019-06-26T11:36:30.210Z,18.77
2019-06-26T11:38:58.728Z,17.45
2019-06-26T11:41:27.165Z,16.07
2019-06-26T11:43:55.699Z,16.02
2019-06-26T11:46:24.387Z,15.72
2019-06-26T11:48:53.218Z,19.23
2019-06-26T11:51:21.651Z,17.23
2019-06-26T11:53:50.385Z,18.52
2019-06-26T11:56:19.249Z,20.88
2019-06-26T11:58:47.685Z,21.48
2019-06-26T12:01:16.101Z,22.62
2019-06-26T12:03:44.544Z,22.27
2019-06-26T12:06:18.821Z,22.37
2019-06-26T12:11:11.365Z,22.85
2019-06-26T12:13:39.825Z,23.25
2019-06-26T12:16:08.241Z,19.75
2019-06-26T12:18:36.674Z,19.25
2019-06-26T12:21:05.875Z,19.77
2019-06-26T12:23:34.302Z,17.87
2019-06-26T12:26:02.985Z,19.95
2019-06-26T12:28:31.424Z,19.23
2019-06-26T12:30:59.876Z,20.32
2019-06-26T12:33:28.310Z,20.03
2019-06-26T12:35:56.749Z,20.45
2019-06-26T12:38:25.191Z,22.45
2019-06-26T12:40:53.681Z,21.33
2019-06-26T12:43:22.359Z,19.10
2019-06-26T12:45:50.765Z,20.57
2019-06-26T12:48:19.318Z,18.27
2019-06-26T12:50:47.812Z,17.33
2019-06-26T12:53:16.302Z,17.05
2019-06-26T12:55:44.716Z,16.90
2019-06-26T12:58:19.198Z,15.40
2019-06-26T13:00:43.330Z,17.27
2019-06-26T13:03:11.789Z,17.53
2019-06-26T13:05:40.216Z,16.15
2019-06-26T13:08:09.005Z,15.87
2019-06-26T13:10:48.892Z,15.43
2019-06-26T13:13:07.952Z,14.60
2019-06-26T13:15:36.412Z,15.23
2019-06-26T13:18:04.946Z,16.10
2019-06-26T13:20:33.528Z,17.82
2019-06-26T13:23:02.229Z,15.95
2019-06-26T13:25:31.028Z,16.30
2019-06-26T13:27:59.728Z,17.15
2019-06-26T13:30:34.019Z,16.77
2019-06-26T13:33:02.442Z,16.73
2019-06-26T13:35:31.138Z,15.40
2019-06-26T13:37:59.615Z,17.05
2019-06-26T13:40:28.089Z,16.50
2019-06-26T13:42:56.512Z,15.98
2019-06-26T13:45:25.014Z,14.45
2019-06-26T13:47:53.417Z,13.72
2019-06-26T13:50:22.033Z,13.25
2019-06-26T13:52:50.686Z,13.95
2019-06-26T13:55:19.117Z,14.53
2019-06-26T13:57:47.928Z,13.00
2019-06-26T14:00:16.896Z,13.03
2019-06-26T14:02:45.670Z,12.47
2019-06-26T14:05:14.491Z,11.35
2019-06-26T14:07:43.216Z,12.43
2019-06-26T14:10:12.246Z,12.05
2019-06-26T14:12:40.662Z,12.30
2019-06-26T14:15:09.638Z,10.10
2019-06-26T14:17:38.080Z,10.48
2019-06-26T14:20:08.106Z,11.65
2019-06-26T14:22:36.588Z,11.77
2019-06-26T14:25:08.368Z,12.45
2019-06-26T14:27:37.013Z,10.72
2019-06-26T14:30:07.816Z,11.03
2019-06-26T14:32:36.276Z,11.13
2019-06-26T14:35:05.750Z,10.38
2019-06-26T14:37:34.194Z,10.80
2019-06-26T14:40:02.721Z,10.38
2019-06-26T14:42:31.128Z,11.10
2019-06-26T14:44:59.579Z,11.00
2019-06-26T14:47:27.996Z,9.33
2019-06-26T14:49:56.429Z,10.20
2019-06-26T14:52:25.133Z,9.73
2019-06-26T14:54:53.549Z,9.55
2019-06-26T14:57:25.095Z,10.60
2019-06-26T14:59:52.414Z,9.68
2019-06-26T15:02:20.849Z,9.18
2019-06-26T15:04:49.276Z,9.37
2019-06-26T15:07:17.697Z,9.20
2019-06-26T15:09:46.121Z,9.03
2019-06-26T15:12:15.024Z,9.10
2019-06-26T15:14:43.442Z,9.28
2019-06-26T15:17:12.138Z,10.20
2019-06-26T15:19:40.814Z,9.95
2019-06-26T15:22:09.258Z,9.50
2019-06-26T15:24:38.831Z,10.08
2019-06-26T15:27:07.535Z,10.27
2019-06-26T15:29:36.207Z,10.28
2019-06-26T15:32:04.642Z,11.40
2019-06-26T15:34:33.356Z,10.58
2019-06-26T15:37:02.227Z,11.00
2019-06-26T15:39:30.977Z,12.25
2019-06-26T15:41:59.408Z,12.13
2019-06-26T15:44:27.839Z,11.83
2019-06-26T15:46:56.267Z,12.87
2019-06-26T15:49:24.696Z,11.93
2019-06-26T15:51:53.150Z,12.63
2019-06-26T15:54:21.578Z,11.88
2019-06-26T15:56:50.028Z,12.10
2019-06-26T15:59:18.463Z,12.15
2019-06-26T16:01:47.017Z,11.30
2019-06-26T16:04:15.441Z,11.73
2019-06-26T16:06:43.886Z,11.25
2019-06-26T16:09:12.298Z,11.30
2019-06-26T16:11:40.758Z,10.93
2019-06-26T16:14:09.262Z,10.23
2019-06-26T16:16:39.589Z,10.28
2019-06-26T16:19:15.393Z,10.37
2019-06-26T16:21:44.136Z,9.98
2019-06-26T16:24:12.550Z,10.80
2019-06-26T16:26:40.994Z,11.08
2019-06-26T16:29:09.603Z,11.15
2019-06-26T16:31:38.106Z,11.68
2019-06-26T16:34:06.533Z,12.03
2019-06-26T16:36:35.553Z,11.73
2019-06-26T16:39:06.638Z,11.28
2019-06-26T16:41:35.825Z,11.08
2019-06-26T16:44:05.117Z,10.97
2019-06-26T16:46:33.537Z,12.35
2019-06-26T16:49:02.317Z,11.08
2019-06-26T16:51:30.754Z,12.30
2019-06-26T16:53:59.207Z,13.50
2019-06-26T16:56:27.619Z,13.00
2019-06-26T16:58:56.090Z,12.37
2019-06-26T17:01:24.508Z,12.68
2019-06-26T17:03:53.097Z,12.53
2019-06-26T17:06:21.514Z,12.25
2019-06-26T17:08:49.960Z,12.88
2019-06-26T17:11:18.376Z,12.60
2019-06-26T17:13:46.886Z,12.90
2019-06-26T17:16:16.990Z,12.40
2019-06-26T17:18:45.437Z,11.55
2019-06-26T17:21:13.873Z,11.88
2019-06-26T17:23:42.375Z,11.22
2019-06-26T17:26:10.790Z,11.28
2019-06-26T17:28:39.243Z,11.80
2019-06-26T17:31:07.670Z,10.95
2019-06-26T17:33:36.402Z,11.15
2019-06-26T17:36:05.131Z,11.70
2019-06-26T17:38:34.023Z,10.58
2019-06-26T17:41:03.235Z,11.15
2019-06-26T17:43:31.731Z,11.12
2019-06-26T17:46:00.187Z,11.23
2019-06-26T17:48:28.630Z,11.33
2019-06-26T17:50:57.186Z,10.70
2019-06-26T17:53:26.158Z,11.28
2019-06-26T17:55:54.604Z,10.90
2019-06-26T17:58:25.388Z,11.08
2019-06-26T18:00:53.504Z,10.47
2019-06-26T18:03:21.932Z,10.63
2019-06-26T18:05:50.354Z,11.55
2019-06-26T18:08:19.189Z,12.95
2019-06-26T18:10:47.866Z,12.47
2019-06-26T18:13:16.695Z,10.90
2019-06-26T18:15:45.125Z,11.48
2019-06-26T18:18:13.869Z,12.15
2019-06-26T18:20:42.333Z,11.63
2019-06-26T18:23:10.880Z,12.50
2019-06-26T18:25:39.617Z,11.80
2019-06-26T18:28:08.064Z,12.90
2019-06-26T18:30:36.761Z,11.95
2019-06-26T18:33:05.224Z,11.17
2019-06-26T18:35:33.785Z,10.63
2019-06-26T18:38:02.205Z,11.25
2019-06-26T18:40:31.007Z,11.17
2019-06-26T18:42:59.434Z,10.90
2019-06-26T18:45:28.172Z,10.32
2019-06-26T18:47:56.659Z,10.28
2019-06-26T18:50:25.109Z,10.70
2019-06-26T18:52:53.570Z,10.43
2019-06-26T18:55:22.049Z,10.15
2019-06-26T18:57:50.474Z,10.18
2019-06-26T19:00:20.436Z,11.15
2019-06-26T19:02:48.900Z,10.65
2019-06-26T19:05:17.590Z,10.60
2019-06-26T19:07:46.022Z,10.90
2019-06-26T19:10:14.809Z,10.23
2019-06-26T19:12:43.371Z,10.63
2019-06-26T19:15:12.240Z,9.98
2019-06-26T19:17:42.524Z,10.60
2019-06-26T19:20:11.365Z,10.77
2019-06-26T19:22:39.845Z,11.12
2019-06-26T19:25:08.801Z,11.03
2019-06-26T19:27:37.240Z,11.28
2019-06-26T19:30:07.649Z,11.53
2019-06-26T19:32:37.569Z,10.67
2019-06-26T19:35:18.407Z,10.70
2019-06-26T19:37:37.725Z,9.83
2019-06-26T19:40:08.565Z,9.55
2019-06-26T19:45:07.879Z,8.60
2019-06-26T19:47:36.657Z,8.90
2019-06-26T19:50:08.558Z,8.73
2019-06-26T19:52:37.078Z,9.45
2019-06-26T19:55:08.725Z,9.18
2019-06-26T19:57:37.166Z,8.83
2019-06-26T20:00:08.210Z,8.58
2019-06-26T20:05:08.345Z,7.45
2019-06-26T20:07:36.773Z,8.10
2019-06-26T20:10:07.049Z,8.10
2019-06-26T20:12:35.499Z,8.75
2019-06-26T20:15:05.916Z,8.43
2019-06-26T20:17:34.413Z,8.23
2019-06-26T20:20:04.813Z,8.17
2019-06-26T20:22:33.246Z,8.63
2019-06-26T20:25:01.708Z,8.13
2019-06-26T20:27:30.158Z,8.50
2019-06-26T20:29:58.560Z,8.33
2019-06-26T20:32:26.996Z,8.50
2019-06-26T20:34:55.835Z,8.20
2019-06-26T20:37:24.260Z,8.13
2019-06-26T20:39:52.725Z,8.08
2019-06-26T20:42:21.212Z,8.38
2019-06-26T20:44:49.624Z,8.37
2019-06-26T20:47:18.049Z,8.33
2019-06-26T20:49:53.306Z,8.33
2019-06-26T20:52:16.875Z,8.07
2019-06-26T20:55:00.050Z,7.28
2019-06-26T20:57:15.438Z,8.00
2019-06-26T20:59:44.105Z,7.83
2019-06-26T21:02:12.537Z,7.08
2019-06-26T21:04:40.966Z,7.55
2019-06-26T21:07:09.747Z,7.00
2019-06-26T21:09:38.684Z,6.93
2019-06-26T21:12:07.512Z,6.75
2019-06-26T21:14:36.185Z,6.87
2019-06-26T21:17:04.626Z,6.67
2019-06-26T21:19:33.060Z,5.90
2019-06-26T21:22:01.488Z,6.17
2019-06-26T21:24:29.943Z,5.50
2019-06-26T21:26:58.592Z,5.90
2019-06-26T21:29:27.031Z,5.50
2019-06-26T21:31:55.496Z,5.42
2019-06-26T21:34:24.193Z,5.10
2019-06-26T21:36:52.634Z,5.12
2019-06-26T21:39:21.063Z,4.62
2019-06-26T21:41:49.472Z,4.17
2019-06-26T21:44:17.900Z,4.07
2019-06-26T21:46:46.558Z,4.25
2019-06-26T21:49:15.938Z,4.40
2019-06-26T21:51:44.364Z,4.12
2019-06-26T21:54:12.788Z,4.37
2019-06-26T21:56:41.260Z,3.60
2019-06-26T21:59:09.740Z,4.08
2019-06-26T22:01:38.451Z,4.30
2019-06-26T22:04:07.063Z,3.50
2019-06-26T22:06:35.948Z,4.37
2019-06-26T22:09:06.066Z,3.83
2019-06-26T22:11:34.481Z,4.07
2019-06-26T22:14:03.235Z,4.15
2019-06-26T22:16:36.432Z,4.05
2019-06-26T22:19:04.985Z,3.72
2019-06-26T22:21:33.464Z,3.70
2019-06-26T22:24:01.902Z,3.40
2019-06-26T22:26:30.333Z,4.25
2019-06-26T22:28:58.831Z,3.33
2019-06-26T22:31:27.325Z,3.65
2019-06-26T22:33:55.756Z,3.40
2019-06-26T22:36:24.166Z,3.10
2019-06-26T22:38:52.602Z,3.62
2019-06-26T22:41:21.010Z,3.50
2019-06-26T22:43:49.425Z,3.22
2019-06-26T22:46:17.856Z,3.40
2019-06-26T22:48:46.283Z,3.20
2019-06-26T22:51:14.832Z,3.30
2019-06-26T22:53:46.821Z,3.27
2019-06-26T22:56:15.252Z,2.80
2019-06-26T22:58:46.592Z,2.85
2019-06-26T23:01:15.039Z,2.87
2019-06-26T23:03:43.531Z,3.30
2019-06-26T23:06:11.953Z,3.22
2019-06-26T23:08:40.446Z,2.87
2019-06-26T23:11:08.882Z,2.90
2019-06-26T23:13:47.187Z,2.95
2019-06-26T23:16:15.639Z,2.80
2019-06-26T23:18:44.055Z,3.22
2019-06-26T23:21:12.755Z,2.72
2019-06-26T23:23:42.345Z,3.08
2019-06-26T23:26:23.461Z,3.08
2019-06-26T23:28:41.095Z,2.80
2019-06-26T23:31:09.847Z,3.15
2019-06-26T23:33:38.375Z,2.87
2019-06-26T23:36:06.937Z,2.90
2019-06-26T23:38:35.694Z,3.12
2019-06-26T23:41:04.485Z,2.87
2019-06-26T23:43:33.174Z,2.87
2019-06-26T23:46:01.682Z,3.40
2019-06-26T23:48:30.670Z,3.20
2019-06-26T23:50:59.111Z,3.15
2019-06-26T23:53:27.535Z,2.67
2019-06-26T23:55:55.970Z,3.27
2019-06-26T23:58:24.390Z,2.87
